Terminal Aerodrome Forecast
Issued by NWS Portland, ME

Home | Current Version | Previous Version | Text Only | Print | Product List | Glossary On
Versions: 1 2 3 4 5 6 7 8 9 10 11 12 13 14 15 16 17 18 19 20 21
000
FTUS41 KGYX 300039 AAA
TAFPWM
TAF AMD
KPWM 300039Z 3001/3024 16005KT 1/4SM FG VV002
     FM301300 20004KT P6SM SCT003
     FM301400 20007KT P6SM SCT045=

USA.gov is the U.S. government's official web portal to all federal, state and local government web resources and services.